KDRT

Del Rio International Airport

Del Rio, Texas, USA
METAR KDRT 150253Z AUTO 10005KT 10SM CLR 29/21 A2985 RMK AO2 SLP091 T02940211 53005
Observed Flight Rules
Aug-15 @ 02:53 UTC (42 minutes ago) Visual Flight Rules
Wind Visibility Clouds
100° at 5 knots 10 miles
  • Clear skies
Temperatures Readings
Current 29°C / 84°F
Dewpoint 21°C / 70°F
Humidity 62%
Altimeter 29.85" Hg
Pressure 1009.1 hPa
Elevation 313
METAR KDRT 150253Z AUTO 10005KT 10SM CLR 29/21 A2985 RMK AO2 SLP091 T02940211 53005
Observed Flight Rules
Aug-15 @ 02:53 UTC
(42 minutes ago)
VFR
Wind Visibility
100° at 5 knots 10 miles
Clouds
  • Clear skies
Temperature Dewpoint
29°C / 84°F 21°C / 70°F
Humidity Altimeter Pressure
62% 29.85" Hg 1009.1 hPa